createdAt,value
2018-12-18T00:01:34.132Z,10.17
2018-12-18T00:04:06.563Z,13.40
2018-12-18T00:06:35.356Z,22.77
2018-12-18T00:09:14.428Z,16.37
2018-12-18T00:11:43.133Z,14.07
2018-12-18T00:14:20.407Z,15.70
2018-12-18T00:16:49.113Z,15.80
2018-12-18T00:19:32.321Z,15.10
2018-12-18T00:22:13.236Z,12.97
2018-12-18T00:24:45.832Z,17.43
2018-12-18T00:27:14.564Z,15.07
2018-12-18T00:29:49.160Z,15.63
2018-12-18T00:32:40.394Z,15.97
2018-12-18T00:35:12.640Z,12.47
2018-12-18T00:37:46.839Z,14.43
2018-12-18T00:40:27.939Z,14.67
2018-12-18T00:43:02.312Z,13.77
2018-12-18T00:45:34.850Z,16.57
2018-12-18T00:48:13.364Z,14.97
2018-12-18T00:50:43.835Z,17.47
2018-12-18T00:53:18.103Z,14.40
2018-12-18T00:55:59.637Z,15.23
2018-12-18T01:01:42.380Z,10.77
2018-12-18T01:04:21.481Z,13.40
2018-12-18T01:07:00.418Z,14.97
2018-12-18T01:09:29.327Z,12.97
2018-12-18T01:15:14.618Z,10.00
2018-12-18T01:18:02.342Z,13.70
2018-12-18T01:20:43.929Z,12.23
2018-12-18T01:23:16.390Z,14.13
2018-12-18T01:26:01.175Z,12.30
2018-12-18T01:28:45.840Z,15.40
2018-12-18T01:31:14.568Z,12.20
2018-12-18T01:33:48.826Z,14.77
2018-12-18T01:36:30.204Z,19.00
2018-12-18T01:39:12.704Z,10.53
2018-12-18T01:41:43.079Z,13.73
2018-12-18T01:44:11.804Z,14.87
2018-12-18T01:46:52.591Z,13.20
2018-12-18T01:49:35.779Z,14.53
2018-12-18T01:52:08.539Z,17.07
2018-12-18T01:54:43.043Z,15.90
2018-12-18T02:00:11.428Z,15.30
2018-12-18T02:03:00.946Z,13.17
2018-12-18T02:05:32.963Z,15.43
2018-12-18T02:08:13.797Z,19.23
2018-12-18T02:10:49.664Z,16.47
2018-12-18T02:13:26.725Z,15.17
2018-12-18T02:16:01.555Z,12.97
2018-12-18T02:18:30.257Z,16.47
2018-12-18T02:21:05.427Z,15.00
2018-12-18T02:23:52.739Z,18.33
2018-12-18T02:26:31.607Z,14.67
2018-12-18T02:29:00.360Z,14.63
2018-12-18T02:31:35.287Z,15.23
2018-12-18T02:34:13.739Z,18.40
2018-12-18T02:36:40.541Z,15.50
2018-12-18T02:39:09.283Z,14.37
2018-12-18T02:41:51.179Z,15.87
2018-12-18T02:44:42.065Z,16.90
2018-12-18T02:47:17.276Z,15.53
2018-12-18T02:49:46.028Z,16.70
2018-12-18T02:52:14.734Z,17.37
2018-12-18T02:55:02.296Z,13.70
2018-12-18T02:57:31.052Z,17.00
2018-12-18T03:00:04.011Z,17.00
2018-12-18T03:02:32.742Z,15.13
2018-12-18T03:05:05.335Z,14.80
2018-12-18T03:07:34.046Z,20.17
2018-12-18T03:10:02.887Z,16.07
2018-12-18T03:12:31.584Z,18.23
2018-12-18T03:15:12.483Z,22.27
2018-12-18T03:17:42.304Z,22.00
2018-12-18T03:20:29.463Z,22.40
2018-12-18T03:23:08.456Z,20.37
2018-12-18T03:25:37.215Z,18.57
2018-12-18T03:28:05.911Z,16.03
2018-12-18T03:30:46.857Z,15.97
2018-12-18T03:33:19.448Z,17.70
2018-12-18T03:35:48.284Z,16.13
2018-12-18T03:38:16.999Z,13.10
2018-12-18T03:40:45.773Z,15.80
2018-12-18T03:43:28.944Z,15.07
2018-12-18T03:45:57.642Z,14.00
2018-12-18T03:48:26.346Z,13.73
2018-12-18T03:50:55.048Z,14.03
2018-12-18T03:53:27.469Z,16.97
2018-12-18T03:55:56.216Z,16.47
2018-12-18T03:58:24.918Z,13.37
2018-12-18T04:00:53.675Z,14.27
2018-12-18T04:03:35.185Z,14.70
2018-12-18T04:06:04.259Z,13.50
2018-12-18T04:08:32.995Z,12.57
2018-12-18T04:11:01.695Z,14.23
2018-12-18T04:13:55.356Z,16.20
2018-12-18T04:16:24.056Z,17.43
2018-12-18T04:22:01.648Z,15.43
2018-12-18T04:24:33.831Z,17.17
2018-12-18T04:27:02.583Z,18.73
2018-12-18T04:29:31.311Z,15.20
2018-12-18T04:32:00.073Z,23.13
2018-12-18T04:34:32.504Z,15.57
2018-12-18T04:37:01.211Z,19.17
2018-12-18T04:39:29.921Z,14.87
2018-12-18T04:41:58.680Z,17.20
2018-12-18T04:44:33.731Z,18.53
2018-12-18T04:47:21.173Z,15.83
2018-12-18T04:49:49.876Z,20.40
2018-12-18T04:52:18.648Z,16.37
2018-12-18T04:55:00.314Z,17.10
2018-12-18T04:57:29.058Z,17.43
2018-12-18T04:59:57.747Z,16.53
2018-12-18T05:02:26.463Z,15.00
2018-12-18T05:04:58.844Z,20.57
2018-12-18T05:07:35.287Z,19.83
2018-12-18T05:10:04.420Z,21.17
2018-12-18T05:12:33.180Z,21.43
2018-12-18T05:15:08.244Z,21.70
2018-12-18T05:17:36.951Z,16.77
2018-12-18T05:20:12.771Z,18.10
2018-12-18T05:22:41.477Z,17.20
2018-12-18T05:25:14.276Z,20.27
2018-12-18T05:27:48.454Z,17.80
2018-12-18T05:30:29.700Z,19.17
2018-12-18T05:33:02.330Z,18.53
2018-12-18T05:35:31.094Z,16.93
2018-12-18T05:37:59.875Z,16.80
2018-12-18T05:40:46.881Z,24.73
2018-12-18T05:43:19.271Z,14.63
2018-12-18T05:46:00.067Z,14.27
2018-12-18T05:48:34.439Z,16.53
2018-12-18T05:51:03.224Z,21.93
2018-12-18T05:53:35.304Z,17.43
2018-12-18T05:56:04.009Z,15.43
2018-12-18T05:58:39.959Z,18.37
2018-12-18T06:01:09.956Z,16.77
2018-12-18T06:03:38.676Z,23.73
2018-12-18T06:06:21.359Z,20.03
2018-12-18T06:08:50.115Z,21.50
2018-12-18T06:11:18.887Z,25.17
2018-12-18T06:17:00.864Z,26.30
2018-12-18T06:19:29.561Z,23.53
2018-12-18T06:21:58.259Z,26.23
2018-12-18T06:24:32.792Z,23.47
2018-12-18T06:27:01.491Z,21.67
2018-12-18T06:29:30.229Z,21.80
2018-12-18T06:32:21.623Z,26.63
2018-12-18T06:34:53.944Z,28.30
2018-12-18T06:37:29.212Z,22.60
2018-12-18T06:39:57.918Z,22.20
2018-12-18T06:42:26.627Z,24.80
2018-12-18T06:45:05.213Z,26.80
2018-12-18T06:47:37.075Z,24.53
2018-12-18T06:50:05.957Z,26.53
2018-12-18T06:52:34.711Z,29.13
2018-12-18T06:55:06.915Z,25.93
2018-12-18T06:57:35.619Z,18.93
2018-12-18T07:00:06.548Z,22.27
2018-12-18T07:02:51.364Z,17.27
2018-12-18T07:05:25.834Z,16.37
2018-12-18T07:07:57.529Z,22.70
2018-12-18T07:10:25.284Z,20.87
2018-12-18T07:12:54.049Z,16.00
2018-12-18T07:15:22.862Z,17.97
2018-12-18T07:17:51.585Z,21.23
2018-12-18T07:20:20.283Z,23.77
2018-12-18T07:22:48.998Z,16.90
2018-12-18T07:25:17.696Z,15.90
2018-12-18T07:27:46.408Z,17.07
2018-12-18T07:30:29.547Z,17.83
2018-12-18T07:32:58.328Z,17.27
2018-12-18T07:35:27.115Z,21.53
2018-12-18T07:38:01.300Z,18.23
2018-12-18T07:40:44.459Z,19.53
2018-12-18T07:46:14.253Z,18.90
2018-12-18T07:48:51.752Z,17.23
2018-12-18T07:51:39.386Z,20.07
2018-12-18T07:54:22.888Z,20.07
2018-12-18T07:57:07.665Z,18.83
2018-12-18T07:59:42.300Z,21.60
2018-12-18T08:02:11.095Z,18.00
2018-12-18T08:04:51.820Z,22.40
2018-12-18T08:07:20.527Z,14.40
2018-12-18T08:09:54.963Z,20.57
2018-12-18T08:12:30.887Z,17.07
2018-12-18T08:15:05.829Z,17.40
2018-12-18T08:17:34.531Z,20.13
2018-12-18T08:20:03.579Z,13.53
2018-12-18T08:22:32.363Z,16.27
2018-12-18T08:25:17.971Z,17.03
2018-12-18T08:27:53.320Z,17.07
2018-12-18T08:30:22.168Z,16.63
2018-12-18T08:32:50.863Z,13.53
2018-12-18T08:35:21.705Z,15.50
2018-12-18T08:38:07.044Z,12.77
2018-12-18T08:40:50.019Z,14.07
2018-12-18T08:43:35.276Z,13.97
2018-12-18T08:49:11.625Z,8.80
2018-12-18T08:51:40.379Z,9.00
2018-12-18T08:54:12.778Z,10.07
2018-12-18T08:59:38.312Z,11.97
2018-12-18T09:02:07.088Z,12.07
2018-12-18T09:04:41.769Z,13.13
2018-12-18T09:07:23.724Z,15.03
2018-12-18T09:09:58.079Z,11.43
2018-12-18T09:12:45.501Z,9.87
2018-12-18T09:15:57.960Z,17.20
2018-12-18T09:24:14.540Z,16.97
2018-12-18T09:27:02.040Z,15.83
2018-12-18T09:29:31.711Z,16.87
2018-12-18T09:32:00.406Z,21.33
2018-12-18T09:34:34.872Z,11.37
2018-12-18T09:37:12.481Z,11.47
2018-12-18T09:39:43.424Z,15.33
2018-12-18T09:45:11.372Z,13.10
2018-12-18T09:47:46.819Z,16.33
2018-12-18T09:50:15.604Z,10.20
2018-12-18T09:52:44.309Z,15.10
2018-12-18T09:55:17.860Z,14.13
2018-12-18T09:57:52.205Z,14.53
2018-12-18T10:00:20.866Z,10.90
2018-12-18T10:02:49.571Z,12.97
2018-12-18T10:05:18.344Z,8.70
2018-12-18T10:07:47.047Z,14.53
2018-12-18T10:10:15.810Z,10.53
2018-12-18T10:12:48.857Z,14.17
2018-12-18T10:15:17.565Z,17.67
2018-12-18T10:17:46.311Z,12.57
2018-12-18T10:20:15.031Z,9.97
2018-12-18T10:22:43.807Z,12.13
2018-12-18T10:25:15.747Z,14.63
2018-12-18T10:27:50.144Z,9.63
2018-12-18T10:30:18.891Z,14.57
2018-12-18T10:32:59.391Z,10.03
2018-12-18T10:35:28.356Z,9.20
2018-12-18T10:38:02.612Z,11.63
2018-12-18T10:40:36.808Z,9.13
2018-12-18T10:43:11.547Z,9.20
2018-12-18T10:45:46.407Z,8.63
2018-12-18T10:48:15.155Z,10.90
2018-12-18T10:50:47.636Z,7.63
2018-12-18T10:56:33.119Z,9.27
2018-12-18T10:59:01.815Z,6.70
2018-12-18T11:01:39.655Z,7.90
2018-12-18T11:07:17.633Z,9.23
2018-12-18T11:09:48.091Z,7.93
2018-12-18T11:12:21.132Z,8.77
2018-12-18T11:14:53.514Z,8.27
2018-12-18T11:17:22.275Z,7.17
2018-12-18T11:19:50.973Z,6.47
2018-12-18T11:22:19.719Z,8.83
2018-12-18T11:25:08.118Z,7.30
2018-12-18T11:27:36.827Z,9.70
2018-12-18T11:30:05.724Z,8.33
2018-12-18T11:32:35.068Z,8.30
2018-12-18T11:35:26.572Z,6.50
2018-12-18T11:37:55.285Z,10.53
2018-12-18T11:40:24.059Z,7.33
2018-12-18T11:42:52.824Z,7.17
2018-12-18T11:45:21.620Z,7.40
2018-12-18T11:47:50.395Z,6.07
2018-12-18T11:50:19.183Z,7.00
2018-12-18T11:52:47.896Z,7.17
2018-12-18T11:55:16.591Z,8.20
2018-12-18T11:57:45.283Z,6.57
2018-12-18T12:00:16.017Z,8.27
2018-12-18T12:02:44.912Z,5.90
2018-12-18T12:05:17.259Z,6.73
2018-12-18T12:07:46.032Z,7.13
2018-12-18T12:10:14.816Z,9.80
2018-12-18T12:12:44.906Z,5.70
2018-12-18T12:15:19.331Z,6.20
2018-12-18T12:17:48.346Z,6.53
2018-12-18T12:20:17.171Z,6.47
2018-12-18T12:22:46.016Z,3.30
2018-12-18T12:25:18.200Z,4.83
2018-12-18T12:27:52.196Z,8.87
2018-12-18T12:30:20.923Z,6.70
2018-12-18T12:36:03.432Z,7.80
2018-12-18T12:38:32.212Z,8.30
2018-12-18T12:41:00.923Z,5.30
2018-12-18T12:43:32.855Z,6.23
2018-12-18T12:46:01.767Z,7.50
2018-12-18T12:48:36.026Z,6.30
2018-12-18T12:51:04.819Z,9.03
2018-12-18T12:53:43.881Z,11.63
2018-12-18T12:56:12.584Z,7.93
2018-12-18T12:58:59.809Z,7.00
2018-12-18T13:01:28.652Z,7.43
2018-12-18T13:04:09.681Z,6.47
2018-12-18T13:06:38.392Z,5.63
2018-12-18T13:09:08.519Z,6.30
2018-12-18T13:11:37.227Z,7.03
2018-12-18T13:14:22.202Z,6.73
2018-12-18T13:16:50.968Z,7.30
2018-12-18T13:19:19.738Z,7.17
2018-12-18T13:21:48.440Z,5.00
2018-12-18T13:24:32.704Z,6.17
2018-12-18T13:27:01.415Z,5.53
2018-12-18T13:29:36.684Z,4.83
2018-12-18T13:32:06.463Z,6.83
2018-12-18T13:34:38.289Z,6.43
2018-12-18T13:37:07.041Z,11.03
2018-12-18T13:39:35.799Z,6.57
2018-12-18T13:42:04.567Z,4.30
2018-12-18T13:44:37.181Z,5.87
2018-12-18T13:47:05.892Z,5.47
2018-12-18T13:49:34.659Z,3.93
2018-12-18T13:52:03.439Z,6.70
2018-12-18T13:54:45.687Z,6.77
2018-12-18T13:57:14.392Z,6.13
2018-12-18T13:59:43.107Z,8.60
2018-12-18T14:02:11.817Z,5.20
2018-12-18T14:04:44.536Z,8.67
2018-12-18T14:07:13.227Z,3.53
2018-12-18T14:09:42.087Z,4.23
2018-12-18T14:12:11.014Z,4.93
2018-12-18T14:14:42.915Z,5.50
2018-12-18T14:17:11.756Z,8.23
2018-12-18T14:19:40.445Z,5.47
2018-12-18T14:22:09.151Z,5.93
2018-12-18T14:24:42.528Z,3.63
2018-12-18T14:27:11.305Z,6.67
2018-12-18T14:29:40.080Z,6.27
2018-12-18T14:35:10.483Z,4.03
2018-12-18T14:37:39.260Z,4.33
2018-12-18T14:40:07.947Z,4.07
2018-12-18T14:42:36.670Z,4.97
2018-12-18T14:45:08.675Z,3.40
2018-12-18T14:47:43.330Z,4.97
2018-12-18T14:50:24.452Z,5.57
2018-12-18T14:53:01.032Z,3.20
2018-12-18T14:55:40.115Z,2.93
2018-12-18T14:58:12.635Z,3.80
2018-12-18T15:00:41.403Z,2.40
2018-12-18T15:03:14.630Z,1.80
2018-12-18T15:05:43.308Z,7.00
2018-12-18T15:11:31.464Z,5.17
2018-12-18T15:14:03.800Z,3.93
2018-12-18T15:16:35.688Z,4.97
2018-12-18T15:19:10.267Z,5.97
2018-12-18T15:21:38.968Z,5.53
2018-12-18T15:24:14.796Z,4.97
2018-12-18T15:26:55.866Z,3.13
2018-12-18T15:29:28.206Z,5.20
2018-12-18T15:31:59.266Z,5.57
2018-12-18T15:34:29.741Z,2.53
2018-12-18T15:37:09.570Z,4.47
2018-12-18T15:48:25.454Z,6.00
2018-12-18T15:50:54.163Z,7.23
2018-12-18T15:53:41.690Z,4.13
2018-12-18T15:56:10.391Z,8.73
2018-12-18T15:58:45.415Z,6.20
2018-12-18T16:01:32.819Z,8.43
2018-12-18T16:04:11.620Z,5.27
2018-12-18T16:06:54.299Z,5.57
2018-12-18T16:09:23.163Z,7.43
2018-12-18T16:11:51.887Z,6.67
2018-12-18T16:17:22.757Z,8.40
2018-12-18T16:20:03.681Z,7.23
2018-12-18T16:22:44.351Z,6.17
2018-12-18T16:25:31.219Z,6.20
2018-12-18T16:28:14.768Z,7.70
2018-12-18T16:30:43.457Z,7.03
2018-12-18T16:33:16.123Z,6.27
2018-12-18T16:35:48.303Z,4.03
2018-12-18T16:38:20.363Z,8.83
2018-12-18T16:41:07.606Z,5.67
2018-12-18T16:43:46.515Z,6.70
2018-12-18T16:46:21.308Z,6.80
2018-12-18T16:49:02.932Z,5.33
2018-12-18T16:51:31.844Z,5.47
2018-12-18T16:54:18.706Z,5.23
2018-12-18T16:56:52.365Z,6.37
2018-12-18T16:59:37.944Z,8.37
2018-12-18T17:02:06.656Z,9.20
2018-12-18T17:04:51.445Z,5.43
2018-12-18T17:07:21.640Z,7.20
2018-12-18T17:09:51.880Z,7.47
2018-12-18T17:12:32.615Z,9.97
2018-12-18T17:15:13.552Z,9.67
2018-12-18T17:17:59.096Z,11.07
2018-12-18T17:20:27.898Z,8.03
2018-12-18T17:26:13.018Z,8.57
2018-12-18T17:28:41.723Z,10.43
2018-12-18T17:31:15.022Z,7.27
2018-12-18T17:33:49.778Z,4.67
2018-12-18T17:36:37.278Z,5.87
2018-12-18T17:39:15.544Z,4.67
2018-12-18T17:41:59.120Z,6.67
2018-12-18T17:44:31.708Z,6.63
2018-12-18T17:47:00.414Z,8.00
2018-12-18T17:49:34.620Z,8.37
2018-12-18T17:52:03.469Z,7.37
2018-12-18T17:54:35.427Z,8.30
2018-12-18T17:57:10.239Z,7.93
2018-12-18T17:59:40.884Z,8.10
2018-12-18T18:02:19.359Z,9.10
2018-12-18T18:04:51.679Z,9.67
2018-12-18T18:07:26.251Z,11.90
2018-12-18T18:10:10.459Z,13.87
2018-12-18T18:12:58.265Z,12.03
2018-12-18T18:15:27.064Z,16.30
2018-12-18T18:20:57.493Z,16.20
2018-12-18T18:23:32.059Z,12.93
2018-12-18T18:26:21.590Z,12.27
2018-12-18T18:28:50.339Z,7.80
2018-12-18T18:31:19.085Z,8.40
2018-12-18T18:33:53.956Z,7.60
2018-12-18T18:36:41.510Z,5.27
2018-12-18T18:39:10.527Z,6.47
2018-12-18T18:41:39.284Z,5.23
2018-12-18T18:44:11.127Z,5.07
2018-12-18T18:46:39.815Z,4.80
2018-12-18T18:49:08.548Z,6.63
2018-12-18T18:51:37.270Z,4.57
2018-12-18T18:54:09.077Z,4.30
2018-12-18T18:56:50.228Z,5.93
2018-12-18T18:59:18.995Z,4.90
2018-12-18T19:01:47.747Z,4.17
2018-12-18T19:04:28.668Z,4.13
2018-12-18T19:07:13.370Z,6.13
2018-12-18T19:09:42.144Z,3.70
2018-12-18T19:12:10.924Z,5.67
2018-12-18T19:14:43.368Z,5.93
2018-12-18T19:17:12.203Z,6.00
2018-12-18T19:19:52.940Z,4.60
2018-12-18T19:22:26.579Z,6.90
2018-12-18T19:24:59.215Z,4.63
2018-12-18T19:27:33.968Z,6.53
2018-12-18T19:30:23.831Z,6.80
2018-12-18T19:32:52.725Z,6.97
2018-12-18T19:35:21.494Z,7.83
2018-12-18T19:38:08.991Z,5.20
2018-12-18T19:40:47.257Z,6.70
2018-12-18T19:43:25.287Z,6.97
2018-12-18T19:46:10.440Z,5.17
2018-12-18T19:48:43.620Z,7.13
2018-12-18T19:51:17.220Z,6.57
2018-12-18T19:53:49.791Z,5.40
2018-12-18T19:56:28.660Z,5.80
2018-12-18T19:58:57.404Z,6.50
2018-12-18T20:04:40.071Z,7.77
2018-12-18T20:07:08.762Z,6.07
2018-12-18T20:09:38.583Z,8.27
2018-12-18T20:12:14.792Z,5.70
2018-12-18T20:14:47.083Z,5.93
2018-12-18T20:17:35.237Z,5.83
2018-12-18T20:20:06.658Z,7.70
2018-12-18T20:22:41.436Z,5.60
2018-12-18T20:25:26.547Z,7.03
2018-12-18T20:28:07.427Z,6.83
2018-12-18T20:30:36.224Z,7.20
2018-12-18T20:33:17.747Z,6.57
2018-12-18T20:35:52.332Z,7.77
2018-12-18T20:38:21.027Z,9.50
2018-12-18T20:40:49.718Z,7.77
2018-12-18T20:43:24.445Z,7.03
2018-12-18T20:46:11.962Z,7.07
2018-12-18T20:48:40.707Z,10.13
2018-12-18T20:51:22.148Z,10.73
2018-12-18T20:54:01.227Z,8.70
2018-12-18T20:56:29.975Z,10.67
2018-12-18T20:59:19.133Z,10.83
2018-12-18T21:01:47.872Z,12.10
2018-12-18T21:04:23.774Z,11.93
2018-12-18T21:07:05.355Z,10.10
2018-12-18T21:09:34.196Z,7.27
2018-12-18T21:12:03.011Z,11.57
2018-12-18T21:14:48.079Z,12.67
2018-12-18T21:17:16.972Z,12.73
2018-12-18T21:19:46.927Z,15.37
2018-12-18T21:22:15.740Z,14.47
2018-12-18T21:25:03.254Z,14.03
2018-12-18T21:27:46.960Z,10.63
2018-12-18T21:30:15.815Z,9.80
2018-12-18T21:32:44.672Z,9.67
2018-12-18T21:35:34.343Z,6.97
2018-12-18T21:38:15.129Z,7.87
2018-12-18T21:40:43.938Z,9.90
2018-12-18T21:43:22.963Z,8.07
2018-12-18T21:46:10.552Z,9.53
2018-12-18T21:49:02.778Z,10.47
2018-12-18T21:51:37.228Z,9.70
2018-12-18T21:54:09.757Z,10.43
2018-12-18T21:56:38.607Z,13.97
2018-12-18T21:59:07.407Z,12.07
2018-12-18T22:01:39.302Z,10.33
2018-12-18T22:04:30.205Z,9.57
2018-12-18T22:07:11.605Z,10.20
2018-12-18T22:09:40.396Z,9.73
2018-12-18T22:12:09.181Z,12.47
2018-12-18T22:14:41.636Z,10.17
2018-12-18T22:17:10.472Z,9.43
2018-12-18T22:19:39.262Z,12.83
2018-12-18T22:22:08.048Z,9.20
2018-12-18T22:24:55.321Z,9.50
2018-12-18T22:27:36.632Z,10.33
2018-12-18T22:30:07.103Z,10.07
2018-12-18T22:35:29.230Z,9.70
2018-12-18T22:37:57.923Z,9.03
2018-12-18T22:40:26.643Z,8.63
2018-12-18T22:42:55.348Z,8.63
2018-12-18T22:45:44.854Z,10.53
2018-12-18T22:48:13.632Z,9.40
2018-12-18T22:50:42.339Z,9.20
2018-12-18T22:53:29.978Z,9.97
2018-12-18T22:58:52.587Z,8.50
2018-12-18T23:04:30.024Z,11.13
2018-12-18T23:06:58.727Z,8.40
2018-12-18T23:09:27.504Z,8.00
2018-12-18T23:11:56.216Z,11.60
2018-12-18T23:14:34.712Z,9.67
2018-12-18T23:17:09.629Z,12.20
2018-12-18T23:19:50.911Z,11.83
2018-12-18T23:22:19.607Z,9.90
2018-12-18T23:24:52.108Z,10.47
2018-12-18T23:27:20.801Z,10.40
2018-12-18T23:29:49.488Z,11.00
2018-12-18T23:32:18.195Z,9.90
2018-12-18T23:34:50.715Z,12.07
2018-12-18T23:37:20.880Z,9.40
2018-12-18T23:39:55.379Z,14.13
2018-12-18T23:42:30.083Z,13.40
2018-12-18T23:45:15.374Z,10.70
2018-12-18T23:48:01.901Z,13.70
2018-12-18T23:50:30.727Z,12.87
2018-12-18T23:52:59.687Z,11.13
2018-12-18T23:55:41.377Z,9.97
2018-12-18T23:58:10.072Z,9.87
